Time;durP1;ratioP1;P1;durP2;ratioP2;P2;SDS_P1;SDS_P2;PMS_P1;PMS_P2;Temp;Humidity;BMP_temperature;BMP_pressure;BME280_temperature;BME280_humidity;BME280_pressure;Samples;Min_cycle;Max_cycle;Signal;HPM_P1;HPM_P2
2023/12/17 00:00:40;;;;;;;0.30;0.30;;;1.20;99.90;;;;;;5035203;28;20174;-60
2023/12/17 00:03:05;;;;;;;0.30;0.30;;;1.20;99.90;;;;;;5035479;28;20438;-60
2023/12/17 00:05:31;;;;;;;0.53;0.53;;;1.30;99.90;;;;;;5035433;28;20182;-60
2023/12/17 00:07:56;;;;;;;1.30;1.23;;;1.30;99.90;;;;;;5034745;28;20210;-60
2023/12/17 00:10:22;;;;;;;0.37;0.37;;;1.30;99.90;;;;;;5034371;28;20184;-60
2023/12/17 00:12:48;;;;;;;0.30;0.30;;;1.30;99.90;;;;;;5034818;28;20180;-60
2023/12/17 00:15:13;;;;;;;0.50;0.50;;;1.20;99.90;;;;;;5034682;28;20528;-60
2023/12/17 00:17:40;;;;;;;0.30;0.30;;;1.20;99.90;;;;;;5033469;28;20258;-59
2023/12/17 00:20:06;;;;;;;0.30;0.30;;;1.10;99.90;;;;;;5033207;28;20248;-59
2023/12/17 00:22:32;;;;;;;0.30;0.30;;;1.20;99.90;;;;;;5033382;28;20191;-60
2023/12/17 00:24:58;;;;;;;0.30;0.30;;;1.30;99.90;;;;;;5033482;28;20573;-59
2023/12/17 00:27:24;;;;;;;0.40;0.40;;;1.30;99.90;;;;;;5032787;28;20263;-60
2023/12/17 00:29:54;;;;;;;0.90;0.50;;;1.20;99.90;;;;;;5032053;28;20669;-59
2023/12/17 00:32:19;;;;;;;0.40;0.40;;;1.20;99.90;;;;;;5033186;28;20511;-60
2023/12/17 00:34:45;;;;;;;0.50;0.50;;;1.20;99.90;;;;;;5034228;28;20264;-59
2023/12/17 00:37:11;;;;;;;0.40;0.40;;;1.30;99.90;;;;;;5000700;28;20241;-59
2023/12/17 00:39:37;;;;;;;0.30;0.30;;;1.30;99.90;;;;;;5034166;28;20446;-58
2023/12/17 00:42:02;;;;;;;0.30;0.30;;;1.30;99.90;;;;;;5033708;28;20831;-60
2023/12/17 00:44:34;;;;;;;0.40;0.40;;;1.30;99.90;;;;;;5032601;28;20180;-60
2023/12/17 00:47:05;;;;;;;0.70;0.70;;;1.40;99.90;;;;;;5033026;28;20222;-59
2023/12/17 00:49:30;;;;;;;0.30;0.30;;;1.30;99.90;;;;;;5033541;28;20232;-59
2023/12/17 00:52:01;;;;;;;0.50;0.50;;;1.40;99.90;;;;;;5032886;28;20540;-59
2023/12/17 00:54:26;;;;;;;0.40;0.40;;;1.30;99.90;;;;;;5033421;28;20218;-60
2023/12/17 00:56:52;;;;;;;0.30;0.30;;;1.20;99.90;;;;;;5033881;28;20200;-59
2023/12/17 00:59:17;;;;;;;0.30;0.30;;;1.20;99.90;;;;;;5033581;28;20623;-60
2023/12/17 01:01:43;;;;;;;0.30;0.30;;;1.20;99.90;;;;;;5034256;28;20169;-60
2023/12/17 01:04:09;;;;;;;0.30;0.30;;;1.20;99.90;;;;;;5033948;28;20172;-60
2023/12/17 01:06:34;;;;;;;0.30;0.30;;;1.10;99.90;;;;;;5034451;28;20185;-59
2023/12/17 01:09:00;;;;;;;0.30;0.30;;;1.00;99.90;;;;;;5034644;28;20188;-60
2023/12/17 01:11:25;;;;;;;0.30;0.30;;;0.90;99.90;;;;;;5034117;28;20232;-60
2023/12/17 01:13:51;;;;;;;0.30;0.30;;;1.00;99.90;;;;;;5033994;28;20663;-60
2023/12/17 01:16:17;;;;;;;0.30;0.30;;;1.10;99.90;;;;;;5034775;28;20181;-59
2023/12/17 01:18:42;;;;;;;0.50;0.50;;;1.10;99.90;;;;;;5034265;28;20311;-60
2023/12/17 01:21:08;;;;;;;0.40;0.40;;;1.10;99.90;;;;;;5033897;28;20175;-60
2023/12/17 01:23:35;;;;;;;0.30;0.30;;;1.20;99.90;;;;;;5033770;28;20175;-60
2023/12/17 01:26:01;;;;;;;0.40;0.40;;;1.10;99.90;;;;;;5034471;28;20540;-60
2023/12/17 01:28:27;;;;;;;0.40;0.40;;;1.20;99.90;;;;;;5037952;28;20212;-60
2023/12/17 01:30:52;;;;;;;0.40;0.40;;;1.10;99.90;;;;;;5037663;28;20267;-60
2023/12/17 01:33:18;;;;;;;1.53;0.40;;;1.10;99.90;;;;;;5038023;28;20195;-60
2023/12/17 01:35:43;;;;;;;0.40;0.40;;;1.10;99.90;;;;;;5037390;28;20180;-60
2023/12/17 01:38:09;;;;;;;0.37;0.37;;;1.10;99.90;;;;;;5037898;28;20220;-59
2023/12/17 01:40:35;;;;;;;0.30;0.30;;;1.20;99.90;;;;;;5037346;28;20168;-60
2023/12/17 01:43:03;;;;;;;0.30;0.30;;;1.20;99.90;;;;;;5037733;28;20665;-60
2023/12/17 01:45:29;;;;;;;0.30;0.30;;;1.30;99.90;;;;;;5038185;28;20658;-60
2023/12/17 01:47:55;;;;;;;0.30;0.30;;;1.30;99.90;;;;;;5037617;28;20184;-60
2023/12/17 01:50:21;;;;;;;0.30;0.30;;;1.30;99.80;;;;;;5037975;28;20184;-60
2023/12/17 01:52:46;;;;;;;0.33;0.33;;;1.30;99.70;;;;;;5037083;28;20215;-60
2023/12/17 01:55:13;;;;;;;0.30;0.30;;;1.20;99.70;;;;;;5037415;28;20411;-60
2023/12/17 01:57:39;;;;;;;0.30;0.30;;;1.10;99.80;;;;;;5037299;28;20459;-60
2023/12/17 02:00:06;;;;;;;0.30;0.30;;;0.90;99.90;;;;;;5037543;28;20169;-60
2023/12/17 02:02:31;;;;;;;0.30;0.30;;;0.80;99.90;;;;;;5037027;28;20563;-60
2023/12/17 02:04:57;;;;;;;0.30;0.30;;;0.80;99.90;;;;;;5037501;28;20207;-60
2023/12/17 02:07:23;;;;;;;0.50;0.50;;;0.90;99.90;;;;;;5037484;28;20189;-60
2023/12/17 02:09:48;;;;;;;0.30;0.30;;;1.10;99.90;;;;;;5037025;28;20196;-60
2023/12/17 02:12:28;;;;;;;0.93;0.67;;;1.20;99.90;;;;;;5036391;28;20196;-60
2023/12/17 02:14:56;;;;;;;0.30;0.30;;;1.20;99.90;;;;;;5036668;28;20184;-60
2023/12/17 02:17:27;;;;;;;0.30;0.30;;;1.10;99.90;;;;;;5037196;28;20198;-60
2023/12/17 02:19:52;;;;;;;0.40;0.40;;;1.00;99.90;;;;;;5036892;28;20240;-60
2023/12/17 02:22:18;;;;;;;0.40;0.40;;;1.10;99.90;;;;;;5036509;28;20626;-60
2023/12/17 02:24:44;;;;;;;0.30;0.30;;;1.20;99.90;;;;;;5037046;28;20177;-60
2023/12/17 02:27:09;;;;;;;0.30;0.30;;;1.20;99.90;;;;;;5036320;28;20252;-60
2023/12/17 02:29:38;;;;;;;0.30;0.30;;;1.20;99.90;;;;;;5036217;28;20436;-60
2023/12/17 02:32:04;;;;;;;0.32;0.32;;;1.10;99.90;;;;;;5035654;28;20219;-60
2023/12/17 02:34:30;;;;;;;0.88;0.40;;;1.20;99.90;;;;;;5036440;28;20181;-60
2023/12/17 02:36:56;;;;;;;0.40;0.40;;;1.20;99.90;;;;;;5036229;28;20218;-60
2023/12/17 02:39:22;;;;;;;0.30;0.30;;;1.30;99.80;;;;;;5034908;28;20205;-60
2023/12/17 02:41:47;;;;;;;0.30;0.30;;;1.30;99.60;;;;;;5036023;28;20251;-59
2023/12/17 02:44:13;;;;;;;0.40;0.40;;;1.20;99.50;;;;;;5037217;28;20258;-60
2023/12/17 02:46:38;;;;;;;0.40;0.40;;;1.20;99.70;;;;;;5036056;28;20179;-60
2023/12/17 02:49:04;;;;;;;1.00;0.90;;;1.20;99.70;;;;;;5036155;28;20204;-60
2023/12/17 02:51:31;;;;;;;0.30;0.30;;;1.20;99.60;;;;;;5035859;28;20211;-59
2023/12/17 02:53:57;;;;;;;0.40;0.40;;;1.10;99.80;;;;;;5036317;28;20181;-60
2023/12/17 02:56:22;;;;;;;0.30;0.30;;;1.20;99.80;;;;;;5035304;28;20311;-60
2023/12/17 02:58:48;;;;;;;0.30;0.30;;;1.20;99.70;;;;;;5035604;28;20194;-60
2023/12/17 03:01:13;;;;;;;0.30;0.30;;;1.10;99.60;;;;;;5034818;28;20165;-60
2023/12/17 03:03:39;;;;;;;0.30;0.30;;;1.10;99.60;;;;;;5035472;28;20217;-60
2023/12/17 03:06:05;;;;;;;0.30;0.30;;;1.10;99.60;;;;;;5035306;28;20196;-60
2023/12/17 03:08:30;;;;;;;0.30;0.30;;;1.10;99.60;;;;;;5034852;28;20286;-60
2023/12/17 03:10:56;;;;;;;0.30;0.30;;;1.10;99.60;;;;;;5034654;28;20411;-60
2023/12/17 03:13:22;;;;;;;0.30;0.30;;;1.00;99.50;;;;;;5035424;28;20183;-60
2023/12/17 03:15:47;;;;;;;0.80;0.80;;;1.10;99.60;;;;;;5035244;28;20173;-60
2023/12/17 03:18:14;;;;;;;0.30;0.30;;;1.00;99.90;;;;;;5035583;28;20756;-60
2023/12/17 03:20:40;;;;;;;0.60;0.60;;;0.90;99.90;;;;;;5035498;28;20180;-60
2023/12/17 03:23:06;;;;;;;0.30;0.30;;;1.00;99.90;;;;;;5035756;28;20234;-60
2023/12/17 03:25:31;;;;;;;0.30;0.30;;;1.00;99.90;;;;;;5035325;28;20885;-60
2023/12/17 03:27:57;;;;;;;0.30;0.30;;;1.00;99.90;;;;;;5034801;28;20276;-60
2023/12/17 03:30:22;;;;;;;0.30;0.30;;;1.10;99.90;;;;;;5034958;28;20172;-60
2023/12/17 03:32:48;;;;;;;0.30;0.30;;;1.20;99.90;;;;;;5034898;28;20206;-60
2023/12/17 03:35:14;;;;;;;0.30;0.30;;;1.30;99.80;;;;;;5035324;28;20682;-60
2023/12/17 03:37:39;;;;;;;0.40;0.40;;;1.30;99.60;;;;;;5033698;28;20289;-60
2023/12/17 03:40:06;;;;;;;0.30;0.30;;;1.30;99.60;;;;;;5105735;22;20366;-57
2023/12/17 03:42:31;;;;;;;0.30;0.30;;;1.20;99.60;;;;;;5055062;28;20564;-57
2023/12/17 03:44:57;;;;;;;0.30;0.30;;;1.20;99.60;;;;;;5054923;28;20175;-58
2023/12/17 03:47:23;;;;;;;0.50;0.50;;;1.20;99.70;;;;;;5054683;28;20175;-57
2023/12/17 03:49:49;;;;;;;0.30;0.30;;;1.20;99.50;;;;;;5053892;28;20203;-58
2023/12/17 03:52:14;;;;;;;0.30;0.30;;;1.30;99.30;;;;;;5054067;28;20172;-58
2023/12/17 03:54:40;;;;;;;0.30;0.30;;;1.20;99.20;;;;;;5055071;28;20203;-58
2023/12/17 03:57:06;;;;;;;0.30;0.30;;;1.10;99.30;;;;;;5054735;28;20275;-58
2023/12/17 03:59:31;;;;;;;0.50;0.50;;;1.00;99.40;;;;;;5054314;28;20666;-58
2023/12/17 04:02:01;;;;;;;1.00;0.80;;;1.00;99.70;;;;;;5054287;28;20407;-57
2023/12/17 04:04:27;;;;;;;0.30;0.30;;;1.00;99.90;;;;;;5054572;28;20227;-58
2023/12/17 04:06:52;;;;;;;0.63;0.63;;;1.00;99.90;;;;;;5054581;28;20590;-57
2023/12/17 04:09:19;;;;;;;0.30;0.30;;;1.10;99.90;;;;;;5054256;28;20708;-58
2023/12/17 04:11:44;;;;;;;0.30;0.30;;;1.20;99.90;;;;;;5054109;28;20255;-57
2023/12/17 04:14:10;;;;;;;0.30;0.30;;;1.30;99.50;;;;;;5054500;28;20261;-60
2023/12/17 04:16:36;;;;;;;0.30;0.30;;;1.30;99.30;;;;;;5053987;28;20192;-60
2023/12/17 04:19:02;;;;;;;0.30;0.30;;;1.40;99.10;;;;;;5054291;28;20192;-60
2023/12/17 04:21:28;;;;;;;0.30;0.30;;;1.30;98.90;;;;;;5053555;28;20176;-60
2023/12/17 04:23:54;;;;;;;0.50;0.50;;;1.20;98.90;;;;;;5053758;28;20180;-60
2023/12/17 04:26:20;;;;;;;0.40;0.40;;;1.10;99.10;;;;;;5053818;28;20167;-60
2023/12/17 04:28:45;;;;;;;0.30;0.30;;;1.20;99.30;;;;;;5053848;28;20224;-60
2023/12/17 04:31:11;;;;;;;0.30;0.30;;;1.10;99.20;;;;;;5053492;28;20175;-60
2023/12/17 04:33:36;;;;;;;1.27;0.97;;;1.00;99.30;;;;;;5053944;28;20166;-60
2023/12/17 04:36:02;;;;;;;0.30;0.30;;;0.90;99.70;;;;;;5053776;28;20247;-60
2023/12/17 04:38:28;;;;;;;0.30;0.30;;;1.00;99.90;;;;;;5053941;28;20219;-60
2023/12/17 04:40:53;;;;;;;0.40;0.40;;;1.10;99.70;;;;;;5054581;28;20173;-60
2023/12/17 04:43:20;;;;;;;0.50;0.50;;;1.10;99.40;;;;;;5054456;28;20164;-59
2023/12/17 04:45:45;;;;;;;0.40;0.40;;;1.10;99.30;;;;;;5054407;28;20183;-60
2023/12/17 04:48:11;;;;;;;0.50;0.50;;;1.00;99.50;;;;;;5053528;28;20180;-59
2023/12/17 04:50:37;;;;;;;0.30;0.30;;;1.10;99.50;;;;;;5053390;28;20266;-60
2023/12/17 04:53:02;;;;;;;0.50;0.50;;;1.20;99.40;;;;;;5053408;28;20203;-60
2023/12/17 04:55:28;;;;;;;0.30;0.30;;;1.10;99.50;;;;;;5053390;28;20201;-60
2023/12/17 04:57:53;;;;;;;0.40;0.40;;;1.10;99.70;;;;;;5053434;28;20203;-60
2023/12/17 05:00:19;;;;;;;0.40;0.40;;;1.10;99.90;;;;;;5053258;28;20763;-60
2023/12/17 05:02:45;;;;;;;0.40;0.40;;;1.20;99.70;;;;;;5052688;28;20165;-60
2023/12/17 05:05:10;;;;;;;0.30;0.30;;;1.30;99.40;;;;;;5053392;28;20176;-60
2023/12/17 05:07:36;;;;;;;0.50;0.50;;;1.30;99.20;;;;;;5053570;28;20203;-60
2023/12/17 05:10:01;;;;;;;0.30;0.30;;;1.20;99.10;;;;;;5053085;28;20203;-60
2023/12/17 05:12:27;;;;;;;0.30;0.30;;;1.10;99.30;;;;;;5053255;28;20226;-60
2023/12/17 05:14:53;;;;;;;0.30;0.30;;;1.10;99.40;;;;;;5053778;28;20173;-60
2023/12/17 05:17:18;;;;;;;0.50;0.50;;;1.10;99.30;;;;;;5053139;28;20240;-60
2023/12/17 05:19:44;;;;;;;0.50;0.50;;;1.00;99.40;;;;;;5053602;28;20187;-60
2023/12/17 05:22:09;;;;;;;0.70;0.70;;;1.00;99.90;;;;;;5052745;28;20168;-60
2023/12/17 05:24:35;;;;;;;0.83;0.83;;;1.10;99.80;;;;;;5053559;28;20210;-60
2023/12/17 05:27:01;;;;;;;0.30;0.30;;;1.10;99.70;;;;;;5053392;28;20543;-60
2023/12/17 05:29:26;;;;;;;0.30;0.30;;;1.00;99.60;;;;;;5053211;28;20568;-60
2023/12/17 05:31:52;;;;;;;0.30;0.30;;;1.00;99.50;;;;;;5053033;28;20178;-60
2023/12/17 05:34:17;;;;;;;0.30;0.30;;;0.90;99.50;;;;;;5053188;28;20171;-59
2023/12/17 05:36:43;;;;;;;0.37;0.37;;;0.90;99.70;;;;;;5053559;28;20192;-60
2023/12/17 05:39:09;;;;;;;0.40;0.40;;;0.90;99.90;;;;;;5053691;28;20229;-60
2023/12/17 05:41:34;;;;;;;0.30;0.30;;;1.00;99.90;;;;;;5054338;28;20187;-60
2023/12/17 05:44:00;;;;;;;0.40;0.40;;;1.00;99.90;;;;;;5053586;28;20593;-60
2023/12/17 05:46:26;;;;;;;0.30;0.30;;;1.00;99.90;;;;;;5053064;28;20244;-60
2023/12/17 05:48:52;;;;;;;0.35;0.35;;;1.10;99.90;;;;;;5053013;28;20219;-60
2023/12/17 05:51:18;;;;;;;0.30;0.30;;;1.20;99.90;;;;;;5052912;28;20172;-60
2023/12/17 05:53:44;;;;;;;0.30;0.30;;;1.20;99.70;;;;;;5052888;28;20179;-60
2023/12/17 05:56:09;;;;;;;0.40;0.40;;;1.10;99.60;;;;;;5053357;28;20164;-60
2023/12/17 05:58:35;;;;;;;0.73;0.73;;;1.10;99.70;;;;;;5052937;28;20260;-60
2023/12/17 06:01:01;;;;;;;0.30;0.30;;;1.20;99.40;;;;;;5052754;28;20179;-60
2023/12/17 06:03:26;;;;;;;0.30;0.30;;;1.10;99.40;;;;;;5052984;28;20175;-58
2023/12/17 06:05:52;;;;;;;0.30;0.30;;;1.10;99.40;;;;;;5052977;28;20218;-60
2023/12/17 06:08:17;;;;;;;0.33;0.33;;;1.10;99.50;;;;;;5052729;28;20655;-60
2023/12/17 06:10:43;;;;;;;0.40;0.40;;;1.20;99.60;;;;;;5052697;28;20181;-60
2023/12/17 06:13:08;;;;;;;0.30;0.30;;;1.20;99.60;;;;;;5054892;28;20185;-60
2023/12/17 06:15:34;;;;;;;0.50;0.50;;;1.20;99.50;;;;;;5056955;28;20177;-60
2023/12/17 06:18:00;;;;;;;0.30;0.30;;;1.20;99.60;;;;;;5056422;28;20200;-60
2023/12/17 06:20:25;;;;;;;0.30;0.30;;;1.20;99.60;;;;;;5056582;28;20182;-60
2023/12/17 06:22:52;;;;;;;0.30;0.30;;;1.20;99.60;;;;;;5056297;28;20245;-59
2023/12/17 06:25:18;;;;;;;0.30;0.30;;;1.20;99.60;;;;;;5056624;28;20538;-60
2023/12/17 06:27:43;;;;;;;0.40;0.40;;;1.30;99.40;;;;;;5056506;28;20183;-60
2023/12/17 06:30:09;;;;;;;0.30;0.30;;;1.30;99.40;;;;;;5056119;28;20286;-60
2023/12/17 06:32:37;;;;;;;0.40;0.40;;;1.30;99.20;;;;;;5056504;28;20259;-60
2023/12/17 06:35:03;;;;;;;0.40;0.40;;;1.30;99.30;;;;;;5056525;28;20403;-60
2023/12/17 06:37:28;;;;;;;0.30;0.30;;;1.30;99.60;;;;;;5056231;28;20252;-59
2023/12/17 06:39:54;;;;;;;0.30;0.30;;;1.30;99.60;;;;;;5056681;28;20455;-60
2023/12/17 06:42:20;;;;;;;0.30;0.30;;;1.40;99.20;;;;;;5056330;28;20180;-60
2023/12/17 06:44:45;;;;;;;0.30;0.30;;;1.40;99.00;;;;;;5056510;28;20412;-60
2023/12/17 06:47:12;;;;;;;0.30;0.30;;;1.30;99.00;;;;;;5055781;28;20660;-60
2023/12/17 06:49:40;;;;;;;0.40;0.40;;;1.40;99.00;;;;;;5055716;28;20212;-60
2023/12/17 06:52:06;;;;;;;0.40;0.40;;;1.40;98.60;;;;;;5055469;28;20216;-60
2023/12/17 06:54:32;;;;;;;0.33;0.33;;;1.50;98.10;;;;;;5055788;28;20202;-60
2023/12/17 06:56:57;;;;;;;0.30;0.30;;;1.60;98.00;;;;;;5056007;28;20200;-60
2023/12/17 06:59:23;;;;;;;0.30;0.30;;;1.60;98.00;;;;;;5055452;28;20568;-60
2023/12/17 07:01:49;;;;;;;0.30;0.30;;;1.60;98.10;;;;;;5054814;28;20173;-59
2023/12/17 07:04:14;;;;;;;0.40;0.40;;;1.60;98.10;;;;;;5055513;28;20178;-60
2023/12/17 07:06:40;;;;;;;0.40;0.40;;;1.70;98.00;;;;;;5055623;28;20173;-60
2023/12/17 07:09:07;;;;;;;0.60;0.50;;;1.70;98.00;;;;;;5054916;28;20641;-60
2023/12/17 07:11:33;;;;;;;0.30;0.30;;;1.70;98.00;;;;;;5055192;28;20304;-59
2023/12/17 07:13:59;;;;;;;0.40;0.40;;;1.60;97.90;;;;;;5055244;28;20189;-60
2023/12/17 07:16:26;;;;;;;0.40;0.40;;;1.60;97.70;;;;;;5055273;28;20412;-60
2023/12/17 07:18:52;;;;;;;0.40;0.40;;;1.60;97.80;;;;;;5055025;28;20582;-60
2023/12/17 07:21:18;;;;;;;0.30;0.30;;;1.60;98.00;;;;;;5054991;28;20235;-60
2023/12/17 07:23:44;;;;;;;0.40;0.40;;;1.60;98.10;;;;;;5052117;28;20165;-60
2023/12/17 07:26:09;;;;;;;0.40;0.40;;;1.70;98.00;;;;;;5053559;28;20559;-59
2023/12/17 07:28:35;;;;;;;0.40;0.40;;;1.80;97.90;;;;;;5054723;28;20431;-60
2023/12/17 07:31:01;;;;;;;0.33;0.33;;;1.80;97.90;;;;;;5054399;28;20394;-60
2023/12/17 07:33:27;;;;;;;0.30;0.30;;;1.90;97.60;;;;;;5054816;28;20227;-60
2023/12/17 07:35:52;;;;;;;0.30;0.30;;;2.00;97.80;;;;;;5054767;28;20409;-60
2023/12/17 07:38:18;;;;;;;0.40;0.40;;;2.00;97.80;;;;;;5055435;28;20208;-60
2023/12/17 07:40:44;;;;;;;0.40;0.40;;;2.00;97.90;;;;;;5055749;28;20743;-60
2023/12/17 07:43:10;;;;;;;0.30;0.30;;;2.00;98.10;;;;;;5054789;28;20175;-60
2023/12/17 07:45:36;;;;;;;0.40;0.40;;;2.10;98.20;;;;;;5054596;28;20181;-60
2023/12/17 07:48:03;;;;;;;0.40;0.40;;;2.10;98.10;;;;;;5054482;28;20338;-60
2023/12/17 07:50:28;;;;;;;0.60;0.60;;;2.20;97.60;;;;;;5054000;28;20594;-60
2023/12/17 07:52:55;;;;;;;0.40;0.40;;;2.30;97.40;;;;;;5054091;28;20188;-60
2023/12/17 07:55:20;;;;;;;0.40;0.40;;;2.40;97.30;;;;;;5054617;28;20188;-60
2023/12/17 07:57:46;;;;;;;1.83;1.73;;;2.50;97.20;;;;;;5054536;28;20205;-60
2023/12/17 08:00:13;;;;;;;1.67;1.57;;;2.50;96.80;;;;;;5054126;28;20201;-59
2023/12/17 08:02:39;;;;;;;1.40;1.30;;;2.60;96.60;;;;;;5054256;28;20555;-60
2023/12/17 08:05:05;;;;;;;0.40;0.40;;;2.60;96.50;;;;;;5054421;28;20647;-60
2023/12/17 08:07:32;;;;;;;0.50;0.50;;;2.60;96.80;;;;;;5054453;28;20189;-58
2023/12/17 08:09:58;;;;;;;0.45;0.45;;;2.70;97.40;;;;;;5051497;28;20209;-58
2023/12/17 08:12:24;;;;;;;0.50;0.50;;;2.80;97.70;;;;;;5053662;28;20174;-58
2023/12/17 08:14:49;;;;;;;0.40;0.40;;;3.10;98.40;;;;;;5053687;28;20173;-58
2023/12/17 08:17:15;;;;;;;1.67;1.57;;;3.70;98.40;;;;;;5053039;28;20459;-58
2023/12/17 08:19:42;;;;;;;2.30;1.03;;;4.40;97.50;;;;;;5053012;28;20189;-58
2023/12/17 08:22:09;;;;;;;2.92;2.78;;;5.20;98.60;;;;;;5052744;28;20199;-58
2023/12/17 08:24:34;;;;;;;0.70;0.70;;;5.80;95.90;;;;;;5053011;28;20551;-58
2023/12/17 08:27:02;;;;;;;1.10;1.10;;;6.40;96.60;;;;;;5052781;28;20234;-58
2023/12/17 08:29:28;;;;;;;3.90;2.17;;;7.00;96.20;;;;;;5052649;28;20194;-59
2023/12/17 08:31:55;;;;;;;0.40;0.40;;;7.50;93.20;;;;;;5052417;28;20190;-58
2023/12/17 08:34:22;;;;;;;3.42;1.50;;;7.90;93.60;;;;;;5052785;28;20182;-58
2023/12/17 08:36:48;;;;;;;10.93;5.80;;;8.40;93.80;;;;;;5053591;28;20198;-59
2023/12/17 08:39:14;;;;;;;2.20;2.00;;;8.70;93.00;;;;;;5053114;28;20217;-59
2023/12/17 08:41:40;;;;;;;5.83;4.20;;;8.80;91.90;;;;;;5053726;28;20174;-58
2023/12/17 08:44:07;;;;;;;10.73;4.43;;;8.80;91.80;;;;;;5053013;28;20182;-58
2023/12/17 08:46:33;;;;;;;7.27;4.40;;;9.10;91.30;;;;;;5053249;28;20425;-58
2023/12/17 08:48:59;;;;;;;4.03;2.70;;;9.60;90.50;;;;;;5053141;28;20801;-57
2023/12/17 08:51:25;;;;;;;1.60;1.23;;;10.00;89.60;;;;;;5052136;28;20492;-58
2023/12/17 08:53:50;;;;;;;2.90;0.77;;;10.40;89.00;;;;;;5052546;28;20636;-59
2023/12/17 08:56:16;;;;;;;1.17;0.83;;;10.70;87.40;;;;;;5053172;28;20228;-59
2023/12/17 08:58:41;;;;;;;2.97;2.10;;;10.90;86.40;;;;;;5053559;28;20731;-59
2023/12/17 09:01:07;;;;;;;0.70;0.70;;;11.20;84.90;;;;;;5052687;28;20170;-59
2023/12/17 09:03:33;;;;;;;0.87;0.87;;;11.60;84.80;;;;;;5052630;28;20168;-58
2023/12/17 09:05:59;;;;;;;1.20;1.20;;;12.10;84.10;;;;;;5052812;28;20566;-59
2023/12/17 09:08:25;;;;;;;1.53;1.43;;;12.60;82.30;;;;;;5052613;28;20234;-58
2023/12/17 09:10:51;;;;;;;1.70;0.90;;;12.90;78.30;;;;;;5052286;28;20413;-58
2023/12/17 09:13:17;;;;;;;2.93;1.30;;;13.10;76.90;;;;;;5052800;28;20201;-58
2023/12/17 09:15:42;;;;;;;7.00;4.10;;;13.30;75.60;;;;;;5052557;28;20177;-59
2023/12/17 09:18:08;;;;;;;4.80;2.70;;;13.80;74.40;;;;;;5052337;28;20445;-59
2023/12/17 09:20:34;;;;;;;2.67;2.47;;;14.30;72.00;;;;;;5052326;28;20170;-58
2023/12/17 09:22:59;;;;;;;2.03;1.83;;;14.90;68.90;;;;;;5052560;28;20170;-58
2023/12/17 09:25:25;;;;;;;2.13;1.97;;;15.40;67.60;;;;;;5051829;28;20185;-58
2023/12/17 09:27:51;;;;;;;7.87;5.07;;;15.80;65.10;;;;;;5051761;28;20183;-58
2023/12/17 09:30:18;;;;;;;4.57;2.97;;;16.20;63.80;;;;;;5051644;28;20289;-58
2023/12/17 09:32:44;;;;;;;5.93;3.30;;;16.70;60.90;;;;;;5051980;28;20541;-58
2023/12/17 09:35:11;;;;;;;6.30;4.60;;;17.10;59.60;;;;;;5052117;28;20423;-58
2023/12/17 09:37:40;;;;;;;8.40;5.97;;;17.40;58.30;;;;;;5052009;28;20434;-59
2023/12/17 09:40:07;;;;;;;4.33;3.30;;;17.80;56.80;;;;;;5051684;28;20469;-58
2023/12/17 09:42:32;;;;;;;5.50;3.30;;;18.20;55.90;;;;;;5051863;28;20444;-58
2023/12/17 09:44:59;;;;;;;6.27;5.63;;;18.70;54.90;;;;;;5052483;28;20486;-58
2023/12/17 09:47:25;;;;;;;4.60;4.07;;;19.20;53.30;;;;;;5052530;28;20176;-58
2023/12/17 09:49:50;;;;;;;7.87;5.50;;;19.70;51.40;;;;;;5055981;28;20482;-58
2023/12/17 09:52:18;;;;;;;6.43;4.90;;;20.00;50.20;;;;;;5055527;28;20408;-58
2023/12/17 09:54:48;;;;;;;5.33;2.70;;;20.30;49.40;;;;;;5055821;28;20558;-59
2023/12/17 09:57:16;;;;;;;10.70;7.03;;;20.30;49.20;;;;;;5055795;28;20494;-59
2023/12/17 09:59:42;;;;;;;9.50;6.43;;;20.40;49.00;;;;;;5055389;28;20451;-58
2023/12/17 10:02:15;;;;;;;4.63;2.80;;;20.30;48.20;;;;;;5055784;28;20840;-58
2023/12/17 10:04:40;;;;;;;7.80;5.73;;;20.10;48.70;;;;;;5055707;28;20933;-58
2023/12/17 10:07:06;;;;;;;6.73;5.20;;;19.80;49.10;;;;;;5055446;28;20413;-58
2023/12/17 10:09:35;;;;;;;2.87;1.83;;;19.50;49.70;;;;;;5055610;28;20288;-58
2023/12/17 10:12:01;;;;;;;1.50;1.37;;;19.40;49.40;;;;;;5055674;28;20442;-58
2023/12/17 10:14:30;;;;;;;1.47;1.20;;;19.30;48.00;;;;;;5055775;28;20412;-59
2023/12/17 10:16:57;;;;;;;7.60;6.33;;;19.40;47.70;;;;;;5055610;28;21008;-58
2023/12/17 10:19:24;;;;;;;1.00;0.80;;;19.60;48.00;;;;;;5055216;28;20423;-61
2023/12/17 10:21:49;;;;;;;28.03;17.93;;;19.70;47.00;;;;;;5055010;28;20498;-58
2023/12/17 10:24:15;;;;;;;10.50;8.40;;;19.90;46.80;;;;;;5054967;28;20914;-59
2023/12/17 10:26:46;;;;;;;4.20;2.87;;;19.90;47.90;;;;;;5055217;28;20174;-59
2023/12/17 10:29:18;;;;;;;12.57;6.80;;;19.90;47.20;;;;;;5054825;28;20189;-58
2023/12/17 10:31:45;;;;;;;2.97;2.70;;;19.80;47.30;;;;;;5052229;28;20400;-58
2023/12/17 10:34:22;;;;;;;22.37;12.53;;;19.70;48.00;;;;;;5054481;28;20416;-58
2023/12/17 10:36:49;;;;;;;7.80;2.03;;;19.30;47.40;;;;;;5054583;28;20444;-58
2023/12/17 10:39:15;;;;;;;2.30;1.23;;;19.10;47.40;;;;;;5054217;28;20423;-58
2023/12/17 10:41:42;;;;;;;3.50;3.07;;;18.90;48.30;;;;;;5054735;28;20416;-58
2023/12/17 10:44:12;;;;;;;2.37;1.97;;;18.70;48.20;;;;;;5056799;28;20405;-58
2023/12/17 10:46:43;;;;;;;6.20;3.67;;;18.40;48.70;;;;;;5055320;28;20435;-59
2023/12/17 10:49:09;;;;;;;3.93;3.37;;;18.00;49.40;;;;;;5054871;28;20801;-58
2023/12/17 10:51:40;;;;;;;2.17;1.37;;;17.50;49.90;;;;;;5054411;28;20413;-57
2023/12/17 10:54:07;;;;;;;1.43;1.33;;;17.10;50.90;;;;;;5054804;28;20389;-58
2023/12/17 10:56:37;;;;;;;2.23;1.73;;;16.80;51.30;;;;;;5054665;28;20418;-58
2023/12/17 10:59:08;;;;;;;1.57;1.47;;;16.40;51.40;;;;;;5053633;28;20429;-58
2023/12/17 11:01:36;;;;;;;1.40;0.70;;;16.00;52.40;;;;;;5054258;28;20739;-58
2023/12/17 11:04:03;;;;;;;1.80;1.20;;;15.40;53.20;;;;;;5054340;28;20412;-58
2023/12/17 11:06:29;;;;;;;2.33;1.33;;;14.80;53.90;;;;;;5054172;28;20831;-58
2023/12/17 11:08:55;;;;;;;2.90;2.70;;;14.20;55.30;;;;;;5053981;28;20452;-58
2023/12/17 11:11:22;;;;;;;4.17;1.90;;;13.60;54.90;;;;;;5053730;28;20170;-58
2023/12/17 11:13:48;;;;;;;1.17;1.07;;;13.10;55.90;;;;;;5054310;28;20406;-58
2023/12/17 11:16:24;;;;;;;1.73;1.63;;;12.60;56.70;;;;;;5054023;28;20393;-58
2023/12/17 11:18:50;;;;;;;1.33;1.20;;;12.20;58.20;;;;;;5053420;28;20471;-57
2023/12/17 11:21:17;;;;;;;0.97;0.90;;;11.90;59.30;;;;;;5051906;28;20425;-58
2023/12/17 11:23:46;;;;;;;1.23;1.13;;;11.60;60.50;;;;;;5054030;28;20413;-57
2023/12/17 11:26:12;;;;;;;1.10;1.00;;;11.40;60.70;;;;;;5053950;28;20416;-58
2023/12/17 11:28:39;;;;;;;0.50;0.50;;;11.20;60.10;;;;;;5054215;28;20440;-58
2023/12/17 11:31:04;;;;;;;0.50;0.50;;;11.10;60.50;;;;;;5053632;28;20409;-57
2023/12/17 11:33:32;;;;;;;0.83;0.83;;;11.00;60.10;;;;;;5053806;28;20504;-58
2023/12/17 11:35:59;;;;;;;1.10;0.80;;;10.80;60.90;;;;;;5054350;28;20786;-58
2023/12/17 11:38:26;;;;;;;3.50;2.20;;;10.60;61.60;;;;;;5053550;28;20471;-58
2023/12/17 11:40:53;;;;;;;2.97;1.90;;;10.30;62.70;;;;;;5053358;28;20952;-58
2023/12/17 11:43:23;;;;;;;5.13;4.40;;;10.10;62.90;;;;;;5053913;28;20442;-58
2023/12/17 11:45:49;;;;;;;10.88;7.00;;;9.80;64.80;;;;;;5054267;28;20198;-58
2023/12/17 11:48:15;;;;;;;7.03;2.97;;;9.60;66.90;;;;;;5054565;28;20181;-58
2023/12/17 11:50:52;;;;;;;5.15;3.50;;;9.50;67.40;;;;;;5053970;28;20174;-57
2023/12/17 11:53:22;;;;;;;2.90;1.75;;;9.30;69.50;;;;;;5054394;28;20564;-58
2023/12/17 11:55:50;;;;;;;1.35;1.00;;;9.00;69.30;;;;;;5054251;28;20208;-57
2023/12/17 11:58:19;;;;;;;2.92;2.72;;;8.90;70.40;;;;;;5054206;28;20198;-57
2023/12/17 12:01:11;;;;;;;6.72;2.13;;;8.60;70.90;;;;;;5053897;28;20175;-58
2023/12/17 12:03:38;;;;;;;1.13;1.05;;;8.60;72.90;;;;;;5054199;28;20162;-58
2023/12/17 12:06:09;;;;;;;1.40;1.30;;;8.60;72.30;;;;;;5053799;28;20170;-58
2023/12/17 12:08:48;;;;;;;3.05;1.50;;;8.50;73.10;;;;;;5053627;28;20277;-58
2023/12/17 12:11:15;;;;;;;2.90;1.83;;;8.30;74.10;;;;;;5053390;28;20176;-58
2023/12/17 12:13:43;;;;;;;2.47;2.20;;;8.30;75.10;;;;;;5053736;28;20647;-58
2023/12/17 12:16:10;;;;;;;2.10;1.30;;;8.20;75.40;;;;;;5053607;28;20185;-57
2023/12/17 12:18:36;;;;;;;2.53;2.28;;;8.20;76.40;;;;;;5053513;28;20248;-57
2023/12/17 12:21:02;;;;;;;1.17;1.17;;;8.20;76.30;;;;;;5053199;28;20170;-56
2023/12/17 12:23:28;;;;;;;1.40;1.30;;;8.30;76.00;;;;;;5053749;28;20174;-58
2023/12/17 12:26:00;;;;;;;0.95;0.80;;;8.20;76.30;;;;;;5053237;28;20187;-57
2023/12/17 12:28:28;;;;;;;4.65;2.53;;;8.20;76.50;;;;;;5053383;28;20190;-58
2023/12/17 12:30:53;;;;;;;1.90;1.80;;;8.30;76.90;;;;;;5053306;28;20544;-58
2023/12/17 12:33:19;;;;;;;0.50;0.40;;;8.30;76.50;;;;;;5053526;28;20189;-58
2023/12/17 12:35:47;;;;;;;0.50;0.50;;;8.40;75.80;;;;;;5053323;28;20177;-58
2023/12/17 12:38:21;;;;;;;1.27;1.27;;;8.30;74.60;;;;;;5052990;28;20459;-58
2023/12/17 12:40:48;;;;;;;0.43;0.43;;;8.30;74.30;;;;;;5052299;28;20203;-58
2023/12/17 12:43:17;;;;;;;0.90;0.90;;;8.30;74.30;;;;;;5053386;28;20173;-58
2023/12/17 12:45:44;;;;;;;0.63;0.63;;;8.30;74.40;;;;;;5052995;28;20206;-58
2023/12/17 12:48:39;;;;;;;1.15;0.73;;;8.30;74.40;;;;;;5052801;28;20174;-57
2023/12/17 12:51:05;;;;;;;0.60;0.60;;;8.40;73.90;;;;;;5050634;28;20177;-57